createdAt,value
2019-05-29T00:00:36.951Z,1014.22
2019-05-29T00:01:36.920Z,1014.21
2019-05-29T00:02:36.902Z,1014.25
2019-05-29T00:03:36.920Z,1014.25
2019-05-29T00:04:36.865Z,1014.25
2019-05-29T00:05:36.847Z,1014.27
2019-05-29T00:06:36.834Z,1014.30
2019-05-29T00:07:36.809Z,1014.28
2019-05-29T00:08:36.788Z,1014.29
2019-05-29T00:09:36.794Z,1014.32
2019-05-29T00:10:36.752Z,1014.31
2019-05-29T00:11:36.737Z,1014.31
2019-05-29T00:12:36.746Z,1014.38
2019-05-29T00:13:36.720Z,1014.36
2019-05-29T00:14:36.682Z,1014.39
2019-05-29T00:15:36.660Z,1014.37
2019-05-29T00:16:36.660Z,1014.42
2019-05-29T00:17:36.652Z,1014.44
2019-05-29T00:18:36.615Z,1014.42
2019-05-29T00:19:36.585Z,1014.40
2019-05-29T00:20:36.568Z,1014.44
2019-05-29T00:21:36.555Z,1014.43
2019-05-29T00:22:36.530Z,1014.43
2019-05-29T00:23:36.535Z,1014.43
2019-05-29T00:24:36.492Z,1014.47
2019-05-29T00:25:36.488Z,1014.47
2019-05-29T00:26:36.456Z,1014.47
2019-05-29T00:27:36.440Z,1014.48
2019-05-29T00:28:36.440Z,1014.49
2019-05-29T00:29:36.399Z,1014.49
2019-05-29T00:30:36.409Z,1014.48
2019-05-29T00:31:36.372Z,1014.49
2019-05-29T00:32:36.870Z,1014.50
2019-05-29T00:33:36.355Z,1014.54
2019-05-29T00:34:36.335Z,1014.55
2019-05-29T00:35:36.291Z,1014.53
2019-05-29T00:36:36.286Z,1014.60
2019-05-29T00:37:36.253Z,1014.56
2019-05-29T00:38:36.259Z,1014.53
2019-05-29T00:39:36.214Z,1014.56
2019-05-29T00:40:36.195Z,1014.56
2019-05-29T00:41:36.176Z,1014.58
2019-05-29T00:42:36.162Z,1014.57
2019-05-29T00:43:36.176Z,1014.59
2019-05-29T00:44:36.125Z,1014.59
2019-05-29T00:45:36.105Z,1014.60
2019-05-29T00:46:36.107Z,1014.63
2019-05-29T00:47:36.067Z,1014.62
2019-05-29T00:48:36.047Z,1014.65
2019-05-29T00:49:36.043Z,1014.65
2019-05-29T00:50:36.010Z,1014.65
2019-05-29T00:51:35.991Z,1014.70
2019-05-29T00:52:36.008Z,1014.68
2019-05-29T00:53:35.955Z,1014.70
2019-05-29T00:54:35.962Z,1014.68
2019-05-29T00:55:35.918Z,1014.68
2019-05-29T00:56:35.922Z,1014.73
2019-05-29T00:57:35.879Z,1014.73
2019-05-29T00:58:35.880Z,1014.74
2019-05-29T00:59:35.843Z,1014.75
2019-05-29T01:00:35.831Z,1014.78
2019-05-29T01:01:35.805Z,1014.77
2019-05-29T01:02:35.809Z,1014.80
2019-05-29T01:03:35.769Z,1014.81
2019-05-29T01:04:35.765Z,1014.82
2019-05-29T01:05:35.757Z,1014.85
2019-05-29T01:06:35.740Z,1014.83
2019-05-29T01:07:35.697Z,1014.83
2019-05-29T01:08:35.679Z,1014.85
2019-05-29T01:09:35.683Z,1014.88
2019-05-29T01:10:35.660Z,1014.87
2019-05-29T01:11:35.641Z,1014.87
2019-05-29T01:12:35.618Z,1014.90
2019-05-29T01:13:35.587Z,1014.89
2019-05-29T01:14:49.255Z,1014.96
2019-05-29T01:15:35.564Z,1014.98
2019-05-29T01:16:35.547Z,1014.96
2019-05-29T01:17:35.506Z,1015.01
2019-05-29T01:18:35.494Z,1014.97
2019-05-29T01:19:35.474Z,1014.97
2019-05-29T01:20:35.457Z,1015.01
2019-05-29T01:21:35.464Z,1014.99
2019-05-29T01:22:35.413Z,1015.04
2019-05-29T01:23:35.395Z,1014.99
2019-05-29T01:24:35.380Z,1015.03
2019-05-29T01:28:58.409Z,1015.09
2019-05-29T01:29:49.964Z,1015.11
2019-05-29T01:30:51.606Z,1015.11
2019-05-29T01:31:49.927Z,1015.09
2019-05-29T01:32:49.907Z,1015.09
2019-05-29T01:33:49.915Z,1015.10
2019-05-29T01:34:49.874Z,1015.15
2019-05-29T01:35:49.867Z,1015.13
2019-05-29T01:36:49.833Z,1015.15
2019-05-29T01:37:49.812Z,1015.19
2019-05-29T01:38:49.803Z,1015.18
2019-05-29T01:39:49.807Z,1015.15
2019-05-29T01:40:49.769Z,1015.19
2019-05-29T01:41:49.730Z,1015.19
2019-05-29T01:42:50.160Z,1015.18
2019-05-29T01:43:49.696Z,1015.20
2019-05-29T01:45:03.837Z,1015.20
2019-05-29T01:45:49.660Z,1015.23
2019-05-29T01:46:49.658Z,1015.24
2019-05-29T01:47:49.623Z,1015.23
2019-05-29T01:48:49.630Z,1015.24
2019-05-29T01:49:49.582Z,1015.27
2019-05-29T01:50:49.565Z,1015.27
2019-05-29T01:51:49.543Z,1015.28
2019-05-29T01:52:49.541Z,1015.30
2019-05-29T01:53:49.506Z,1015.32
2019-05-29T01:54:49.490Z,1015.35
2019-05-29T01:55:49.468Z,1015.35
2019-05-29T01:56:49.471Z,1015.37
2019-05-29T01:57:49.449Z,1015.37
2019-05-29T01:58:49.410Z,1015.36
2019-05-29T01:59:49.397Z,1015.38
2019-05-29T02:00:49.381Z,1015.38
2019-05-29T02:01:49.357Z,1015.40
2019-05-29T02:02:49.345Z,1015.36
2019-05-29T02:03:49.346Z,1015.40
2019-05-29T02:04:49.301Z,1015.38
2019-05-29T02:05:49.278Z,1015.46
2019-05-29T02:06:49.267Z,1015.44
2019-05-29T02:07:49.249Z,1015.47
2019-05-29T02:08:49.226Z,1015.47
2019-05-29T02:09:49.224Z,1015.51
2019-05-29T02:10:49.206Z,1015.48
2019-05-29T02:11:49.211Z,1015.50
2019-05-29T02:12:49.154Z,1015.52
2019-05-29T02:13:49.145Z,1015.54
2019-05-29T02:14:49.106Z,1015.54
2019-05-29T02:15:49.105Z,1015.58
2019-05-29T02:16:49.085Z,1015.61
2019-05-29T02:17:49.058Z,1015.64
2019-05-29T02:18:49.043Z,1015.64
2019-05-29T02:19:49.017Z,1015.66
2019-05-29T02:20:49.014Z,1015.63
2019-05-29T02:21:48.980Z,1015.64
2019-05-29T02:22:48.960Z,1015.66
2019-05-29T02:23:48.937Z,1015.64
2019-05-29T02:24:48.916Z,1015.70
2019-05-29T02:25:48.916Z,1015.67
2019-05-29T02:26:48.883Z,1015.67
2019-05-29T02:27:48.889Z,1015.70
2019-05-29T02:28:48.845Z,1015.74
2019-05-29T02:29:48.822Z,1015.75
2019-05-29T02:30:48.832Z,1015.82
2019-05-29T02:31:48.789Z,1015.77
2019-05-29T02:32:48.779Z,1015.81
2019-05-29T02:33:48.757Z,1015.82
2019-05-29T02:34:48.730Z,1015.73
2019-05-29T02:35:48.730Z,1015.80
2019-05-29T02:36:48.689Z,1015.82
2019-05-29T02:37:48.671Z,1015.78
2019-05-29T02:38:48.657Z,1015.78
2019-05-29T02:39:48.636Z,1015.77
2019-05-29T02:40:48.627Z,1015.76
2019-05-29T02:41:48.599Z,1015.75
2019-05-29T02:42:48.578Z,1015.78
2019-05-29T02:43:48.554Z,1015.76
2019-05-29T02:44:48.539Z,1015.73
2019-05-29T02:45:54.342Z,1015.74
2019-05-29T02:46:48.518Z,1015.76
2019-05-29T02:47:48.489Z,1015.81
2019-05-29T02:48:48.470Z,1015.75
2019-05-29T02:49:48.454Z,1015.77
2019-05-29T02:50:48.420Z,1015.73
2019-05-29T02:51:48.400Z,1015.75
2019-05-29T02:52:48.388Z,1015.75
2019-05-29T02:53:48.361Z,1015.76
2019-05-29T02:54:48.357Z,1015.74
2019-05-29T02:55:48.325Z,1015.77
2019-05-29T02:56:48.309Z,1015.81
2019-05-29T02:57:48.293Z,1015.77
2019-05-29T02:58:48.296Z,1015.77
2019-05-29T02:59:48.266Z,1015.79
2019-05-29T03:00:48.230Z,1015.80
2019-05-29T03:01:48.226Z,1015.83
2019-05-29T03:02:48.188Z,1015.83
2019-05-29T03:03:48.173Z,1015.83
2019-05-29T03:04:48.169Z,1015.84
2019-05-29T03:05:48.184Z,1015.86
2019-05-29T03:06:48.108Z,1015.87
2019-05-29T03:07:48.147Z,1015.91
2019-05-29T03:08:48.086Z,1015.89
2019-05-29T03:09:48.124Z,1015.93
2019-05-29T03:10:48.043Z,1015.91
2019-05-29T03:11:48.018Z,1015.96
2019-05-29T03:12:48.003Z,1015.93
2019-05-29T03:13:47.975Z,1015.93
2019-05-29T03:14:47.959Z,1015.96
2019-05-29T03:15:47.956Z,1015.96
2019-05-29T03:16:47.931Z,1016.00
2019-05-29T03:17:47.971Z,1016.02
2019-05-29T03:18:47.876Z,1016.03
2019-05-29T03:19:47.862Z,1016.03
2019-05-29T03:20:47.839Z,1016.05
2019-05-29T03:21:47.836Z,1016.05
2019-05-29T03:22:47.799Z,1016.04
2019-05-29T03:23:47.939Z,1016.06
2019-05-29T03:24:47.763Z,1016.07
2019-05-29T03:25:47.741Z,1016.11
2019-05-29T03:26:47.723Z,1016.15
2019-05-29T03:27:47.700Z,1016.17
2019-05-29T03:28:47.684Z,1016.17
2019-05-29T03:29:47.684Z,1016.15
2019-05-29T03:30:47.675Z,1016.16
2019-05-29T03:31:48.694Z,1016.17
2019-05-29T03:32:48.891Z,1016.16
2019-05-29T03:33:50.368Z,1016.19
2019-05-29T03:34:48.244Z,1016.16
2019-05-29T03:35:48.630Z,1016.15
2019-05-29T03:36:48.878Z,1016.16
2019-05-29T03:37:47.508Z,1016.17
2019-05-29T03:38:47.489Z,1016.18
2019-05-29T03:39:47.473Z,1016.19
2019-05-29T03:40:47.443Z,1016.15
2019-05-29T03:41:47.448Z,1016.16
2019-05-29T03:42:47.414Z,1016.20
2019-05-29T03:43:47.390Z,1016.21
2019-05-29T03:44:47.366Z,1016.20
2019-05-29T03:45:47.351Z,1016.23
2019-05-29T03:46:47.351Z,1016.23
2019-05-29T03:47:47.324Z,1016.25
2019-05-29T03:48:47.294Z,1016.26
2019-05-29T03:49:47.288Z,1016.31
2019-05-29T03:50:47.252Z,1016.29
2019-05-29T03:51:47.268Z,1016.32
2019-05-29T03:52:47.228Z,1016.30
2019-05-29T03:53:47.200Z,1016.31
2019-05-29T03:54:47.173Z,1016.34
2019-05-29T03:55:47.163Z,1016.38
2019-05-29T03:56:47.137Z,1016.41
2019-05-29T03:57:47.142Z,1016.41
2019-05-29T03:58:47.096Z,1016.41
2019-05-29T03:59:47.099Z,1016.37
2019-05-29T04:00:48.566Z,1016.40
2019-05-29T04:01:47.038Z,1016.41
2019-05-29T04:02:47.017Z,1016.44
2019-05-29T04:03:47.000Z,1016.43
2019-05-29T04:04:47.017Z,1016.46
2019-05-29T04:05:46.955Z,1016.50
2019-05-29T04:06:47.516Z,1016.51
2019-05-29T04:07:46.922Z,1016.50
2019-05-29T04:08:46.908Z,1016.53
2019-05-29T04:09:46.882Z,1016.52
2019-05-29T04:10:46.892Z,1016.52
2019-05-29T04:11:46.851Z,1016.51
2019-05-29T04:12:46.825Z,1016.54
2019-05-29T04:13:46.814Z,1016.48
2019-05-29T04:14:46.794Z,1016.53
2019-05-29T04:15:46.780Z,1016.53
2019-05-29T04:16:59.347Z,1016.54
2019-05-29T04:17:46.731Z,1016.53
2019-05-29T04:18:46.714Z,1016.58
2019-05-29T04:19:46.711Z,1016.59
2019-05-29T04:20:46.672Z,1016.59
2019-05-29T04:21:46.655Z,1016.60
2019-05-29T04:22:46.630Z,1016.66
2019-05-29T04:23:46.623Z,1016.66
2019-05-29T04:24:46.600Z,1016.67
2019-05-29T04:25:46.590Z,1016.75
2019-05-29T04:26:46.551Z,1016.69
2019-05-29T04:27:46.537Z,1016.73
2019-05-29T04:28:46.521Z,1016.75
2019-05-29T04:29:46.507Z,1016.80
2019-05-29T04:30:46.475Z,1016.84
2019-05-29T04:31:46.480Z,1016.90
2019-05-29T04:32:46.441Z,1016.87
2019-05-29T04:33:46.414Z,1016.89
2019-05-29T04:34:46.406Z,1016.94
2019-05-29T04:35:46.379Z,1016.92
2019-05-29T04:36:46.362Z,1016.94
2019-05-29T04:37:46.358Z,1016.96
2019-05-29T04:38:46.346Z,1016.99
2019-05-29T04:39:46.308Z,1017.01
2019-05-29T04:40:46.299Z,1017.02
2019-05-29T04:41:46.266Z,1017.05
2019-05-29T04:42:46.286Z,1017.07
2019-05-29T04:43:46.227Z,1017.10
2019-05-29T04:44:46.218Z,1017.11
2019-05-29T04:45:46.194Z,1017.10
2019-05-29T04:46:46.190Z,1017.12
2019-05-29T04:47:46.151Z,1017.14
2019-05-29T04:48:46.155Z,1017.12
2019-05-29T04:49:46.127Z,1017.15
2019-05-29T04:50:46.097Z,1017.17
2019-05-29T04:51:46.100Z,1017.18
2019-05-29T04:52:46.088Z,1017.19
2019-05-29T04:53:46.042Z,1017.24
2019-05-29T04:54:46.029Z,1017.24
2019-05-29T04:55:46.017Z,1017.24
2019-05-29T04:56:45.989Z,1017.27
2019-05-29T04:57:46.004Z,1017.30
2019-05-29T04:58:45.956Z,1017.33
2019-05-29T04:59:45.936Z,1017.35
2019-05-29T05:00:58.540Z,1017.35
2019-05-29T05:01:45.899Z,1017.37
2019-05-29T05:02:45.889Z,1017.32
2019-05-29T05:03:45.895Z,1017.30
2019-05-29T05:04:45.870Z,1017.34
2019-05-29T05:05:45.826Z,1017.35
2019-05-29T05:06:45.813Z,1017.32
2019-05-29T05:07:45.806Z,1017.30
2019-05-29T05:08:45.802Z,1017.30
2019-05-29T05:09:45.761Z,1017.34
2019-05-29T05:10:45.745Z,1017.36
2019-05-29T05:11:45.732Z,1017.37
2019-05-29T05:12:45.755Z,1017.32
2019-05-29T05:13:45.705Z,1017.35
2019-05-29T05:14:45.706Z,1017.34
2019-05-29T05:15:45.650Z,1017.39
2019-05-29T05:16:45.641Z,1017.40
2019-05-29T05:17:45.626Z,1017.40
2019-05-29T05:18:45.610Z,1017.38
2019-05-29T05:19:45.586Z,1017.37
2019-05-29T05:20:45.583Z,1017.38
2019-05-29T05:21:45.548Z,1017.40
2019-05-29T05:22:45.529Z,1017.41
2019-05-29T05:23:45.514Z,1017.44
2019-05-29T05:24:45.490Z,1017.44
2019-05-29T05:25:45.477Z,1017.44
2019-05-29T05:26:45.473Z,1017.47
2019-05-29T05:27:45.444Z,1017.47
2019-05-29T05:28:46.438Z,1017.48
2019-05-29T05:29:45.435Z,1017.46
2019-05-29T05:30:45.387Z,1017.46
2019-05-29T05:31:45.405Z,1017.48
2019-05-29T05:32:45.363Z,1017.44
2019-05-29T05:33:45.340Z,1017.45
2019-05-29T05:34:45.318Z,1017.45
2019-05-29T05:35:45.298Z,1017.44
2019-05-29T05:36:45.283Z,1017.46
2019-05-29T05:37:45.285Z,1017.46
2019-05-29T05:38:45.244Z,1017.46
2019-05-29T05:39:45.228Z,1017.51
2019-05-29T05:40:45.220Z,1017.52
2019-05-29T05:41:45.539Z,1017.52
2019-05-29T05:42:45.176Z,1017.60
2019-05-29T05:43:45.179Z,1017.55
2019-05-29T05:44:45.141Z,1017.58
2019-05-29T05:45:45.123Z,1017.61
2019-05-29T05:46:45.107Z,1017.59
2019-05-29T05:47:56.884Z,1017.61
2019-05-29T05:48:45.099Z,1017.62
2019-05-29T05:49:45.079Z,1017.60
2019-05-29T05:50:45.041Z,1017.65
2019-05-29T05:51:45.027Z,1017.61
2019-05-29T05:52:45.000Z,1017.66
2019-05-29T05:53:44.984Z,1017.68
2019-05-29T05:54:44.986Z,1017.67
2019-05-29T05:55:44.949Z,1017.69
2019-05-29T05:56:44.937Z,1017.72
2019-05-29T05:57:44.915Z,1017.72
2019-05-29T05:58:44.897Z,1017.72
2019-05-29T05:59:44.877Z,1017.75
2019-05-29T06:00:44.882Z,1017.77
2019-05-29T06:01:44.860Z,1017.76
2019-05-29T06:02:44.825Z,1017.80
2019-05-29T06:03:44.808Z,1017.77
2019-05-29T06:04:44.821Z,1017.81
2019-05-29T06:05:44.775Z,1017.81
2019-05-29T06:06:44.750Z,1017.83
2019-05-29T06:07:44.737Z,1017.83
2019-05-29T06:08:44.727Z,1017.82
2019-05-29T06:09:44.712Z,1017.84
2019-05-29T06:10:44.700Z,1017.82
2019-05-29T06:11:44.664Z,1017.85
2019-05-29T06:12:44.651Z,1017.86
2019-05-29T06:13:44.646Z,1017.83
2019-05-29T06:14:44.614Z,1017.84
2019-05-29T06:15:44.594Z,1017.82
2019-05-29T06:16:44.581Z,1017.85
2019-05-29T06:18:04.774Z,1017.84
2019-05-29T06:18:44.547Z,1017.83
2019-05-29T06:19:44.524Z,1017.88
2019-05-29T06:20:44.581Z,1017.85
2019-05-29T06:21:44.503Z,1017.83
2019-05-29T06:22:44.472Z,1017.86
2019-05-29T06:23:44.482Z,1017.91
2019-05-29T06:24:44.447Z,1017.91
2019-05-29T06:25:44.471Z,1017.92
2019-05-29T06:26:44.405Z,1017.93
2019-05-29T06:27:44.389Z,1017.93
2019-05-29T06:28:44.379Z,1017.93
2019-05-29T06:29:44.379Z,1017.93
2019-05-29T06:30:45.083Z,1017.93
2019-05-29T06:31:44.335Z,1017.98
2019-05-29T06:32:44.303Z,1017.97
2019-05-29T06:33:44.285Z,1017.99
2019-05-29T06:34:44.291Z,1017.99
2019-05-29T06:35:44.256Z,1018.00
2019-05-29T06:36:47.874Z,1018.05
2019-05-29T06:37:44.215Z,1018.07
2019-05-29T06:38:44.565Z,1018.08
2019-05-29T06:39:44.183Z,1018.09
2019-05-29T06:40:44.182Z,1018.03
2019-05-29T06:41:44.400Z,1018.08
2019-05-29T06:42:44.133Z,1018.06
2019-05-29T06:43:44.492Z,1018.06
2019-05-29T06:44:47.377Z,1018.06
2019-05-29T06:45:44.173Z,1018.10
2019-05-29T06:46:45.322Z,1018.11
2019-05-29T06:47:44.622Z,1018.12
2019-05-29T06:48:56.297Z,1018.15
2019-05-29T06:49:44.396Z,1018.12
2019-05-29T06:50:43.996Z,1018.15
2019-05-29T06:51:43.996Z,1018.16
2019-05-29T06:52:43.960Z,1018.16
2019-05-29T06:53:44.195Z,1018.19
2019-05-29T06:54:44.173Z,1018.20
2019-05-29T06:55:44.074Z,1018.24
2019-05-29T06:56:43.905Z,1018.25
2019-05-29T06:57:44.438Z,1018.22
2019-05-29T06:58:44.320Z,1018.25
2019-05-29T06:59:44.705Z,1018.25
2019-05-29T07:00:44.876Z,1018.25
2019-05-29T07:01:43.817Z,1018.24
2019-05-29T07:02:44.876Z,1018.24
2019-05-29T07:03:44.104Z,1018.23
2019-05-29T07:04:44.626Z,1018.27
2019-05-29T07:05:46.721Z,1018.30
2019-05-29T07:06:44.802Z,1018.26
2019-05-29T07:07:44.492Z,1018.26
2019-05-29T07:08:47.843Z,1018.26
2019-05-29T07:09:43.666Z,1018.29
2019-05-29T07:10:44.599Z,1018.33
2019-05-29T07:11:43.640Z,1018.32
2019-05-29T07:12:44.493Z,1018.33
2019-05-29T07:13:47.079Z,1018.33
2019-05-29T07:14:44.546Z,1018.30
2019-05-29T07:15:45.671Z,1018.34
2019-05-29T07:16:53.195Z,1018.34
2019-05-29T07:17:44.476Z,1018.38
2019-05-29T07:19:22.417Z,1018.36
2019-05-29T07:19:55.138Z,1018.39
2019-05-29T07:20:43.494Z,1018.40
2019-05-29T07:21:44.924Z,1018.43
2019-05-29T07:22:43.460Z,1018.42
2019-05-29T07:23:45.132Z,1018.44
2019-05-29T07:24:43.550Z,1018.44
2019-05-29T07:25:43.414Z,1018.41
2019-05-29T07:26:43.857Z,1018.43
2019-05-29T07:27:43.376Z,1018.43
2019-05-29T07:29:03.069Z,1018.49
2019-05-29T07:29:43.570Z,1018.48
2019-05-29T07:30:49.721Z,1018.49
2019-05-29T07:31:43.303Z,1018.50
2019-05-29T07:32:49.535Z,1018.47
2019-05-29T07:33:43.328Z,1018.47
2019-05-29T07:34:58.128Z,1018.51
2019-05-29T07:35:43.612Z,1018.49
2019-05-29T07:36:44.036Z,1018.53
2019-05-29T07:37:43.814Z,1018.54
2019-05-29T07:38:46.116Z,1018.54
2019-05-29T07:39:43.594Z,1018.54
2019-05-29T07:40:45.121Z,1018.57
2019-05-29T07:41:43.659Z,1018.56
2019-05-29T07:42:49.848Z,1018.54
2019-05-29T07:43:43.854Z,1018.58
2019-05-29T07:44:44.051Z,1018.56
2019-05-29T07:45:44.080Z,1018.59
2019-05-29T07:46:45.111Z,1018.59
2019-05-29T07:47:44.601Z,1018.57
2019-05-29T07:48:45.670Z,1018.60
2019-05-29T07:49:45.303Z,1018.58
2019-05-29T07:50:44.109Z,1018.61
2019-05-29T07:51:43.701Z,1018.60
2019-05-29T07:52:44.129Z,1018.61
2019-05-29T07:53:42.933Z,1018.62
2019-05-29T07:54:43.778Z,1018.59
2019-05-29T07:55:42.905Z,1018.60
2019-05-29T07:56:42.878Z,1018.57
2019-05-29T07:57:42.928Z,1018.57
2019-05-29T07:58:48.976Z,1018.57
2019-05-29T07:59:42.850Z,1018.55
2019-05-29T08:01:06.927Z,1018.58
2019-05-29T08:01:42.951Z,1018.60
2019-05-29T08:02:43.334Z,1018.60
2019-05-29T08:03:43.519Z,1018.57
2019-05-29T08:04:43.092Z,1018.61
2019-05-29T08:05:46.219Z,1018.61
2019-05-29T08:06:49.754Z,1018.59
2019-05-29T08:07:43.426Z,1018.61
2019-05-29T08:08:43.210Z,1018.62
2019-05-29T08:09:43.618Z,1018.61
2019-05-29T08:10:43.429Z,1018.62
2019-05-29T08:11:43.558Z,1018.61
2019-05-29T08:12:48.512Z,1018.61
2019-05-29T08:13:43.623Z,1018.62
2019-05-29T08:14:43.718Z,1018.61
2019-05-29T08:15:54.091Z,1018.64
2019-05-29T08:16:43.934Z,1018.68
2019-05-29T08:17:43.939Z,1018.64
2019-05-29T08:18:46.129Z,1018.67
2019-05-29T08:20:00.583Z,1018.68
2019-05-29T08:20:42.483Z,1018.67
2019-05-29T08:21:42.725Z,1018.72
2019-05-29T08:22:42.505Z,1018.69
2019-05-29T08:23:42.434Z,1018.69
2019-05-29T08:24:42.658Z,1018.66
2019-05-29T08:25:43.451Z,1018.70
2019-05-29T08:26:42.916Z,1018.66
2019-05-29T08:27:42.694Z,1018.66
2019-05-29T08:28:42.783Z,1018.71
2019-05-29T08:29:42.585Z,1018.68
2019-05-29T08:30:47.375Z,1018.72
2019-05-29T08:31:42.754Z,1018.73
2019-05-29T08:32:43.652Z,1018.72
2019-05-29T08:33:42.838Z,1018.70
2019-05-29T08:34:43.041Z,1018.73
2019-05-29T08:35:43.074Z,1018.69
2019-05-29T08:37:00.813Z,1018.69
2019-05-29T08:37:42.847Z,1018.70
2019-05-29T08:38:44.160Z,1018.70
2019-05-29T08:39:43.227Z,1018.68
2019-05-29T08:40:43.009Z,1018.70
2019-05-29T08:41:47.760Z,1018.71
2019-05-29T08:42:43.110Z,1018.72
2019-05-29T08:43:42.506Z,1018.74
2019-05-29T08:44:43.278Z,1018.70
2019-05-29T08:45:43.379Z,1018.71
2019-05-29T08:47:00.663Z,1018.74
2019-05-29T08:47:42.036Z,1018.69
2019-05-29T08:48:42.044Z,1018.71
2019-05-29T08:49:42.004Z,1018.73
2019-05-29T08:50:42.026Z,1018.72
2019-05-29T08:51:41.977Z,1018.72
2019-05-29T08:52:41.961Z,1018.73
2019-05-29T08:53:42.541Z,1018.69
2019-05-29T08:54:42.083Z,1018.65
2019-05-29T08:55:42.078Z,1018.68
2019-05-29T08:56:42.274Z,1018.69
2019-05-29T08:57:42.563Z,1018.67
2019-05-29T08:58:42.888Z,1018.70
2019-05-29T08:59:42.140Z,1018.68
2019-05-29T09:00:46.579Z,1018.72
2019-05-29T09:01:42.806Z,1018.67
2019-05-29T09:02:42.561Z,1018.65
2019-05-29T09:03:42.779Z,1018.66
2019-05-29T09:04:43.028Z,1018.68
2019-05-29T09:05:42.454Z,1018.69
2019-05-29T09:06:42.999Z,1018.72
2019-05-29T09:07:43.359Z,1018.71
2019-05-29T09:08:43.396Z,1018.70
2019-05-29T09:09:42.900Z,1018.73
2019-05-29T09:10:43.135Z,1018.76
2019-05-29T09:11:42.954Z,1018.73
2019-05-29T09:12:45.620Z,1018.74
2019-05-29T09:13:41.625Z,1018.73
2019-05-29T09:14:41.607Z,1018.78
2019-05-29T09:15:41.601Z,1018.78
2019-05-29T09:16:41.590Z,1018.80
2019-05-29T09:17:41.571Z,1018.79
2019-05-29T09:18:41.581Z,1018.84
2019-05-29T09:19:41.536Z,1018.86
2019-05-29T09:21:00.823Z,1018.85
2019-05-29T09:21:41.513Z,1018.90
2019-05-29T09:22:41.493Z,1018.90
2019-05-29T09:23:41.486Z,1018.86
2019-05-29T09:24:41.487Z,1018.86
2019-05-29T09:25:41.454Z,1018.90
2019-05-29T09:26:41.442Z,1018.94
2019-05-29T09:27:41.431Z,1018.92
2019-05-29T09:28:41.416Z,1018.93
2019-05-29T09:29:41.411Z,1018.96
2019-05-29T09:30:41.410Z,1018.97
2019-05-29T09:31:41.397Z,1018.97
2019-05-29T09:32:50.056Z,1018.96
2019-05-29T09:33:41.356Z,1018.89
2019-05-29T09:34:41.346Z,1018.95
2019-05-29T09:35:41.335Z,1018.99
2019-05-29T09:36:41.344Z,1018.98
2019-05-29T09:37:41.336Z,1018.96
2019-05-29T09:38:41.347Z,1018.97
2019-05-29T09:39:41.295Z,1018.94
2019-05-29T09:40:41.279Z,1018.99
2019-05-29T09:41:41.293Z,1018.91
2019-05-29T09:42:41.256Z,1018.89
2019-05-29T09:43:57.618Z,1018.92
2019-05-29T09:44:41.243Z,1018.92
2019-05-29T09:45:41.236Z,1018.90
2019-05-29T09:46:41.217Z,1018.85
2019-05-29T09:47:41.225Z,1018.83
2019-05-29T09:48:49.635Z,1018.84
2019-05-29T09:49:41.209Z,1018.80
2019-05-29T09:50:50.037Z,1018.81
2019-05-29T09:51:41.167Z,1018.83
2019-05-29T09:52:41.169Z,1018.84
2019-05-29T09:53:41.165Z,1018.84
2019-05-29T09:54:41.146Z,1018.85
2019-05-29T09:55:41.163Z,1018.89
2019-05-29T09:56:41.125Z,1018.93
2019-05-29T09:57:41.112Z,1018.92
2019-05-29T09:58:41.104Z,1018.88
2019-05-29T09:59:41.096Z,1018.88
2019-05-29T10:00:41.105Z,1018.89
2019-05-29T10:01:41.171Z,1018.87
2019-05-29T10:02:41.115Z,1018.88
2019-05-29T10:03:41.053Z,1018.88
2019-05-29T10:04:41.048Z,1018.88
2019-05-29T10:05:41.037Z,1018.85
2019-05-29T10:06:41.058Z,1018.87
2019-05-29T10:07:41.028Z,1018.87
2019-05-29T10:08:41.013Z,1018.88
2019-05-29T10:09:41.008Z,1018.85
2019-05-29T10:10:41.026Z,1018.86
2019-05-29T10:11:40.984Z,1018.79
2019-05-29T10:12:40.992Z,1018.84
2019-05-29T10:13:40.962Z,1018.80
2019-05-29T10:14:40.957Z,1018.85
2019-05-29T10:15:40.947Z,1018.81
2019-05-29T10:16:40.944Z,1018.82
2019-05-29T10:17:40.919Z,1018.83
2019-05-29T10:18:40.951Z,1018.82
2019-05-29T10:19:40.917Z,1018.80
2019-05-29T10:20:40.896Z,1018.80
2019-05-29T10:21:41.457Z,1018.81
2019-05-29T10:22:40.877Z,1018.76
2019-05-29T10:23:40.869Z,1018.80
2019-05-29T10:24:40.870Z,1018.83
2019-05-29T10:25:40.846Z,1018.88
2019-05-29T10:26:40.850Z,1018.85
2019-05-29T10:27:40.842Z,1018.85
2019-05-29T10:28:57.497Z,1018.84
2019-05-29T10:29:40.812Z,1018.84
2019-05-29T10:30:42.263Z,1018.85
2019-05-29T10:31:42.103Z,1018.86
2019-05-29T10:32:42.418Z,1018.88
2019-05-29T10:33:42.248Z,1018.86
2019-05-29T10:34:42.156Z,1018.86
2019-05-29T10:35:40.743Z,1018.85
2019-05-29T10:36:40.739Z,1018.83
2019-05-29T10:37:40.730Z,1018.83
2019-05-29T10:38:40.736Z,1018.84
2019-05-29T10:39:40.706Z,1018.80
2019-05-29T10:40:40.722Z,1018.81
2019-05-29T10:41:40.695Z,1018.77
2019-05-29T10:42:40.679Z,1018.82
2019-05-29T10:43:40.670Z,1018.80
2019-05-29T10:44:40.672Z,1018.83
2019-05-29T10:45:40.641Z,1018.80
2019-05-29T10:46:40.633Z,1018.85
2019-05-29T10:47:40.618Z,1018.83
2019-05-29T10:48:40.620Z,1018.80
2019-05-29T10:49:40.590Z,1018.83
2019-05-29T10:50:40.582Z,1018.82
2019-05-29T10:51:58.040Z,1018.83
2019-05-29T10:52:40.568Z,1018.78
2019-05-29T10:53:40.551Z,1018.76
2019-05-29T10:54:40.551Z,1018.76
2019-05-29T10:55:40.529Z,1018.76
2019-05-29T10:56:40.518Z,1018.77
2019-05-29T10:57:40.512Z,1018.75
2019-05-29T10:58:49.584Z,1018.73
2019-05-29T10:59:40.499Z,1018.76
2019-05-29T11:00:40.479Z,1018.76
2019-05-29T11:01:40.461Z,1018.76
2019-05-29T11:02:40.489Z,1018.74
2019-05-29T11:03:40.443Z,1018.71
2019-05-29T11:04:40.425Z,1018.74
2019-05-29T11:05:40.416Z,1018.70
2019-05-29T11:06:41.266Z,1018.69
2019-05-29T11:07:40.395Z,1018.75
2019-05-29T11:08:40.420Z,1018.72
2019-05-29T11:09:44.532Z,1018.73
2019-05-29T11:10:40.359Z,1018.72
2019-05-29T11:11:40.356Z,1018.74
2019-05-29T11:12:40.344Z,1018.68
2019-05-29T11:13:40.343Z,1018.69
2019-05-29T11:14:40.312Z,1018.71
2019-05-29T11:15:40.315Z,1018.69
2019-05-29T11:16:40.290Z,1018.68
2019-05-29T11:17:40.280Z,1018.69
2019-05-29T11:18:40.265Z,1018.68
2019-05-29T11:19:40.281Z,1018.67
2019-05-29T11:20:40.241Z,1018.68
2019-05-29T11:21:40.242Z,1018.68
2019-05-29T11:22:40.227Z,1018.65
2019-05-29T11:23:40.217Z,1018.71
2019-05-29T11:24:40.221Z,1018.71
2019-05-29T11:25:40.198Z,1018.69
2019-05-29T11:26:40.169Z,1018.70
2019-05-29T11:27:40.179Z,1018.64
2019-05-29T11:28:40.150Z,1018.66
2019-05-29T11:29:40.142Z,1018.64
2019-05-29T11:30:40.134Z,1018.63
2019-05-29T11:31:40.120Z,1018.61
2019-05-29T11:32:40.119Z,1018.62
2019-05-29T11:33:40.094Z,1018.68
2019-05-29T11:34:40.082Z,1018.64
2019-05-29T11:35:56.871Z,1018.67
2019-05-29T11:36:40.059Z,1018.65
2019-05-29T11:37:40.074Z,1018.64
2019-05-29T11:38:40.046Z,1018.65
2019-05-29T11:39:40.027Z,1018.64
2019-05-29T11:40:40.125Z,1018.63
2019-05-29T11:41:40.007Z,1018.61
2019-05-29T11:42:39.992Z,1018.65
2019-05-29T11:43:40.017Z,1018.66
2019-05-29T11:44:39.975Z,1018.68
2019-05-29T11:45:39.959Z,1018.65
2019-05-29T11:46:39.957Z,1018.68
2019-05-29T11:47:39.946Z,1018.65
2019-05-29T11:48:39.919Z,1018.60
2019-05-29T11:49:39.931Z,1018.64
2019-05-29T11:50:39.896Z,1018.62
2019-05-29T11:51:44.118Z,1018.63
2019-05-29T11:52:43.041Z,1018.65
2019-05-29T11:53:39.869Z,1018.60
2019-05-29T11:54:39.846Z,1018.63
2019-05-29T11:55:39.853Z,1018.62
2019-05-29T11:56:39.826Z,1018.61
2019-05-29T11:57:39.892Z,1018.60
2019-05-29T11:58:39.800Z,1018.61
2019-05-29T11:59:39.796Z,1018.58
2019-05-29T12:00:39.783Z,1018.56
2019-05-29T12:01:50.183Z,1018.58
2019-05-29T12:02:39.807Z,1018.57
2019-05-29T12:04:05.237Z,1018.59
2019-05-29T12:04:39.734Z,1018.53
2019-05-29T12:05:39.725Z,1018.59
2019-05-29T12:06:39.710Z,1018.54
2019-05-29T12:07:39.721Z,1018.50
2019-05-29T12:08:39.706Z,1018.54